Time;durP1;ratioP1;P1;durP2;ratioP2;P2;SDS_P1;SDS_P2;PMS_P1;PMS_P2;Temp;Humidity;BMP_temperature;BMP_pressure;BME280_temperature;BME280_humidity;BME280_pressure;Samples;Min_cycle;Max_cycle;Signal;HPM_P1;HPM_P2
2022/10/05 00:01:33;;;;;;;;;;;16.50;95.30;;;;;;6065740;23;19918;-79
2022/10/05 00:04:10;;;;;;;;;;;16.50;95.00;;;;;;6066230;23;19921;-79
2022/10/05 00:06:37;;;;;;;;;;;16.50;95.00;;;;;;6106750;23;20220;-79
2022/10/05 00:09:19;;;;;;;;;;;16.50;95.00;;;;;;6119664;23;19917;-78
2022/10/05 00:11:47;;;;;;;;;;;16.50;94.80;;;;;;6094544;23;19973;-79
2022/10/05 00:14:22;;;;;;;;;;;16.50;94.70;;;;;;6118759;23;19992;-79
2022/10/05 00:16:49;;;;;;;;;;;16.50;94.60;;;;;;6118819;23;19929;-79
2022/10/05 00:19:22;;;;;;;;;;;16.50;94.30;;;;;;6119045;23;20339;-79
2022/10/05 00:21:49;;;;;;;;;;;16.60;93.20;;;;;;6061344;23;19918;-79
2022/10/05 00:24:18;;;;;;;;;;;16.70;91.30;;;;;;6038739;23;20269;-79
2022/10/05 00:26:45;;;;;;;;;;;16.70;90.70;;;;;;6060052;23;19945;-79
2022/10/05 00:29:33;;;;;;;;;;;16.80;90.40;;;;;;6060898;23;19946;-79
2022/10/05 00:32:00;;;;;;;;;;;16.80;90.30;;;;;;6013339;23;19984;-79
2022/10/05 00:34:27;;;;;;;;;;;16.80;89.60;;;;;;6061289;23;20392;-79
2022/10/05 00:36:54;;;;;;;;;;;16.90;89.40;;;;;;6060505;23;20267;-79
2022/10/05 00:39:21;;;;;;;;;;;16.90;89.50;;;;;;6038878;23;19997;-79
2022/10/05 00:41:54;;;;;;;;;;;16.90;89.00;;;;;;6057910;23;19917;-79
2022/10/05 00:44:40;;;;;;;;;;;16.90;88.90;;;;;;6061341;23;19950;-79
2022/10/05 00:47:27;;;;;;;;;;;16.90;88.60;;;;;;6060859;23;19917;-79
2022/10/05 00:50:06;;;;;;;;;;;17.00;88.40;;;;;;6060482;23;19918;-79
2022/10/05 00:52:33;;;;;;;;;;;17.00;88.40;;;;;;6061885;23;19928;-79
2022/10/05 00:55:05;;;;;;;;;;;17.00;88.60;;;;;;6060072;23;19918;-78
2022/10/05 00:57:32;;;;;;;;;;;16.80;92.50;;;;;;6062943;23;20267;-79
2022/10/05 00:59:59;;;;;;;;;;;16.80;92.90;;;;;;6062697;23;19984;-79
2022/10/05 01:02:35;;;;;;;;;;;16.80;92.60;;;;;;6062675;23;19918;-80
2022/10/05 01:05:09;;;;;;;;;;;16.70;93.80;;;;;;6062159;23;20259;-79
2022/10/05 01:07:42;;;;;;;;;;;16.60;94.80;;;;;;6062608;23;19944;-79
2022/10/05 01:10:21;;;;;;;;;;;16.60;94.60;;;;;;6062276;23;19992;-79
2022/10/05 01:13:05;;;;;;;;;;;16.50;94.60;;;;;;6062507;23;19918;-79
2022/10/05 01:15:39;;;;;;;;;;;16.50;94.20;;;;;;6039555;23;19945;-79
2022/10/05 01:18:11;;;;;;;;;;;16.50;94.50;;;;;;6062611;23;19918;-79
2022/10/05 01:20:58;;;;;;;;;;;16.50;94.50;;;;;;6061691;23;19917;-79
2022/10/05 01:23:34;;;;;;;;;;;16.50;94.60;;;;;;6079587;23;19992;-79
2022/10/05 01:26:18;;;;;;;;;;;16.50;94.40;;;;;;6062106;23;19997;-79
2022/10/05 01:28:58;;;;;;;;;;;16.50;94.30;;;;;;6061865;23;20339;-79
2022/10/05 01:31:25;;;;;;;;;;;16.50;94.30;;;;;;6077054;23;19988;-79
2022/10/05 01:33:55;;;;;;;;;;;16.50;94.30;;;;;;6063198;23;19918;-79
2022/10/05 01:36:29;;;;;;;;;;;16.50;94.20;;;;;;6062955;23;19997;-78
2022/10/05 01:39:34;;;;;;;;;;;16.40;94.60;;;;;;6084446;23;19918;-79
2022/10/05 01:42:03;;;;;;;;;;;16.50;94.60;;;;;;6091151;23;20020;-79
2022/10/05 01:44:36;;;;;;;;;;;16.50;94.40;;;;;;6087769;23;19917;-79
2022/10/05 01:47:22;;;;;;;;;;;16.50;94.70;;;;;;6051436;23;19917;-78
2022/10/05 01:49:52;;;;;;;;;;;16.50;94.40;;;;;;6082455;23;19924;-79
2022/10/05 01:52:19;;;;;;;;;;;16.50;94.20;;;;;;6062385;23;19928;-78
2022/10/05 01:54:54;;;;;;;;;;;16.50;93.50;;;;;;6061567;23;19956;-79
2022/10/05 01:57:21;;;;;;;;;;;16.50;92.90;;;;;;6062378;23;19996;-80
2022/10/05 02:00:17;;;;;;;;;;;16.60;92.70;;;;;;6061539;23;19931;-79
2022/10/05 02:02:44;;;;;;;;;;;16.50;93.40;;;;;;6084919;23;20232;-79
2022/10/05 02:05:16;;;;;;;;;;;16.50;93.20;;;;;;6040104;23;19922;-78
2022/10/05 02:07:55;;;;;;;;;;;16.50;93.40;;;;;;6061129;23;20000;-78
2022/10/05 02:10:25;;;;;;;;;;;16.50;92.60;;;;;;6074462;23;19924;-79
2022/10/05 02:12:57;;;;;;;;;;;16.50;92.10;;;;;;6064217;23;19992;-78
2022/10/05 02:15:31;;;;;;;;;;;16.60;91.60;;;;;;6074847;23;19967;-79
2022/10/05 02:18:01;;;;;;;;;;;16.60;90.90;;;;;;6086405;23;19918;-78
2022/10/05 02:20:30;;;;;;;;;;;16.60;90.00;;;;;;6076537;23;19918;-79
2022/10/05 02:22:59;;;;;;;;;;;16.60;89.40;;;;;;6086765;23;19941;-78
2022/10/05 02:25:33;;;;;;;;;;;16.70;87.40;;;;;;6075914;23;19922;-79
2022/10/05 02:28:06;;;;;;;;;;;16.70;86.40;;;;;;6037332;23;19954;-78
2022/10/05 02:30:36;;;;;;;;;;;16.80;86.00;;;;;;6078273;23;19917;-79
2022/10/05 02:33:06;;;;;;;;;;;16.90;85.70;;;;;;6085361;23;19997;-77
2022/10/05 02:35:33;;;;;;;;;;;16.90;85.00;;;;;;6076713;23;19917;-80
2022/10/05 02:38:25;;;;;;;;;;;16.90;84.50;;;;;;6038159;23;19993;-78
2022/10/05 02:40:59;;;;;;;;;;;16.90;83.60;;;;;;6080430;23;19928;-77
2022/10/05 02:43:33;;;;;;;;;;;17.00;83.30;;;;;;6072663;23;19917;-77
2022/10/05 02:46:08;;;;;;;;;;;17.00;83.20;;;;;;6083434;23;20000;-79
2022/10/05 02:49:08;;;;;;;;;;;17.00;81.80;;;;;;6059733;23;19924;-79
2022/10/05 02:51:58;;;;;;;;;;;17.00;81.60;;;;;;6050003;23;19956;-79
2022/10/05 02:54:31;;;;;;;;;;;17.00;81.70;;;;;;6066726;23;19917;-79
2022/10/05 02:56:57;;;;;;;;;;;17.10;81.50;;;;;;6082709;23;19917;-79
2022/10/05 02:59:36;;;;;;;;;;;17.00;81.30;;;;;;6062226;23;20255;-79
2022/10/05 03:02:13;;;;;;;;;;;17.00;81.50;;;;;;6061377;23;19924;-79
2022/10/05 03:04:43;;;;;;;;;;;17.00;81.30;;;;;;6089055;23;19933;-78
2022/10/05 03:07:10;;;;;;;;;;;17.00;81.30;;;;;;6066348;23;19940;-79
2022/10/05 03:10:03;;;;;;;;;;;17.00;80.90;;;;;;6088345;23;19945;-79
2022/10/05 03:12:29;;;;;;;;;;;17.00;80.70;;;;;;6063217;23;20005;-80
2022/10/05 03:15:11;;;;;;;;;;;17.00;80.10;;;;;;6088089;23;19925;-79
2022/10/05 03:18:10;;;;;;;;;;;17.00;79.90;;;;;;6087826;23;19925;-79
2022/10/05 03:20:50;;;;;;;;;;;17.00;80.20;;;;;;6065041;23;20235;-79
2022/10/05 03:23:37;;;;;;;;;;;17.00;80.20;;;;;;6066985;23;19918;-79
2022/10/05 03:26:28;;;;;;;;;;;16.90;82.40;;;;;;6082623;23;19918;-79
2022/10/05 03:29:07;;;;;;;;;;;16.90;84.00;;;;;;6065908;23;19924;-78
2022/10/05 03:31:36;;;;;;;;;;;16.80;85.30;;;;;;6065876;23;20254;-79
2022/10/05 03:34:07;;;;;;;;;;;16.70;87.00;;;;;;6090529;23;19984;-78
2022/10/05 03:36:33;;;;;;;;;;;16.70;87.50;;;;;;6065793;23;19996;-79
2022/10/05 03:39:00;;;;;;;;;;;16.60;88.10;;;;;;6090175;23;19941;-78
2022/10/05 03:41:45;;;;;;;;;;;16.60;89.10;;;;;;6090455;23;20349;-79
2022/10/05 03:44:30;;;;;;;;;;;16.50;90.60;;;;;;6066305;23;19928;-79
2022/10/05 03:47:00;;;;;;;;;;;16.40;90.80;;;;;;6089648;23;19917;-79
2022/10/05 03:49:36;;;;;;;;;;;16.40;90.80;;;;;;6090140;23;20353;-79
2022/10/05 03:52:10;;;;;;;;;;;16.40;90.80;;;;;;6066950;23;20284;-78
2022/10/05 03:54:39;;;;;;;;;;;16.40;91.10;;;;;;6066241;23;20251;-79
2022/10/05 03:57:12;;;;;;;;;;;16.40;91.00;;;;;;6084891;23;19988;-79
2022/10/05 03:59:43;;;;;;;;;;;16.40;91.10;;;;;;6076745;23;20382;-79
2022/10/05 04:02:19;;;;;;;;;;;16.40;91.20;;;;;;6085773;23;19997;-79
2022/10/05 04:04:53;;;;;;;;;;;16.40;91.30;;;;;;6061431;23;19918;-79
2022/10/05 04:07:38;;;;;;;;;;;16.40;91.10;;;;;;6090266;23;20208;-79
2022/10/05 04:10:10;;;;;;;;;;;16.40;91.50;;;;;;6065904;23;19985;-79
2022/10/05 04:12:39;;;;;;;;;;;16.40;91.80;;;;;;6081716;23;19924;-79
2022/10/05 04:15:41;;;;;;;;;;;16.40;92.00;;;;;;6087701;23;19917;-79
2022/10/05 04:18:14;;;;;;;;;;;16.30;92.10;;;;;;6090987;23;20000;-79
2022/10/05 04:20:43;;;;;;;;;;;16.30;92.10;;;;;;6041821;23;19945;-79
2022/10/05 04:23:09;;;;;;;;;;;16.30;92.60;;;;;;6082248;23;19988;-78
2022/10/05 04:25:45;;;;;;;;;;;16.30;92.80;;;;;;6061127;23;19922;-79
2022/10/05 04:28:11;;;;;;;;;;;16.30;92.80;;;;;;6084448;23;19923;-79
2022/10/05 04:30:41;;;;;;;;;;;16.30;93.00;;;;;;6040927;23;20227;-79
2022/10/05 04:33:08;;;;;;;;;;;16.20;93.70;;;;;;6086389;23;20314;-79
2022/10/05 04:35:54;;;;;;;;;;;16.20;93.80;;;;;;6073320;23;19918;-79
2022/10/05 04:38:29;;;;;;;;;;;16.20;94.10;;;;;;6062886;23;19946;-79
2022/10/05 04:40:56;;;;;;;;;;;16.20;94.30;;;;;;6063192;23;20001;-79
2022/10/05 04:43:32;;;;;;;;;;;16.20;93.90;;;;;;6051080;23;19997;-80
2022/10/05 04:46:09;;;;;;;;;;;16.20;93.80;;;;;;6039982;23;19956;-79
2022/10/05 04:48:43;;;;;;;;;;;16.10;93.90;;;;;;6072965;23;19996;-78
2022/10/05 04:51:25;;;;;;;;;;;16.10;94.10;;;;;;6065382;23;19989;-79
2022/10/05 04:53:54;;;;;;;;;;;16.10;95.00;;;;;;6063350;23;19992;-78
2022/10/05 04:56:26;;;;;;;;;;;16.10;95.00;;;;;;6085754;23;19990;-79
2022/10/05 04:59:11;;;;;;;;;;;16.10;95.00;;;;;;6063112;23;19924;-79
2022/10/05 05:01:44;;;;;;;;;;;16.00;95.30;;;;;;6090896;23;20339;-78
2022/10/05 05:04:26;;;;;;;;;;;16.00;95.80;;;;;;6091567;23;19917;-78
2022/10/05 05:06:53;;;;;;;;;;;16.00;95.40;;;;;;6039837;23;19925;-79
2022/10/05 05:09:25;;;;;;;;;;;16.00;95.60;;;;;;6062915;23;19992;-79
2022/10/05 05:12:10;;;;;;;;;;;16.00;95.40;;;;;;6086035;23;19917;-78
2022/10/05 05:14:54;;;;;;;;;;;16.00;96.10;;;;;;6062395;23;20252;-79
2022/10/05 05:17:33;;;;;;;;;;;16.00;95.90;;;;;;6078354;23;19918;-79
2022/10/05 05:20:00;;;;;;;;;;;16.00;96.00;;;;;;6045781;23;19982;-79
2022/10/05 05:22:45;;;;;;;;;;;16.00;96.10;;;;;;6091543;23;19917;-78
2022/10/05 05:25:24;;;;;;;;;;;16.00;95.90;;;;;;6091502;23;19952;-78
2022/10/05 05:27:51;;;;;;;;;;;16.00;95.90;;;;;;6090803;23;20287;-79
2022/10/05 05:30:37;;;;;;;;;;;16.00;96.10;;;;;;6091256;23;20212;-79
2022/10/05 05:33:19;;;;;;;;;;;15.80;97.00;;;;;;6068114;23;20287;-78
2022/10/05 05:36:01;;;;;;;;;;;15.90;96.70;;;;;;6085927;23;19918;-78
2022/10/05 05:38:27;;;;;;;;;;;15.90;96.90;;;;;;6090982;23;19917;-79
2022/10/05 05:41:03;;;;;;;;;;;15.90;96.50;;;;;;6090565;23;19922;-78
2022/10/05 05:43:49;;;;;;;;;;;15.90;96.90;;;;;;6078383;23;19918;-79
2022/10/05 05:46:21;;;;;;;;;;;15.90;96.90;;;;;;6067643;23;19924;-79
2022/10/05 05:49:21;;;;;;;;;;;15.90;97.00;;;;;;6067609;23;19925;-78
2022/10/05 05:51:58;;;;;;;;;;;15.80;97.30;;;;;;6082052;23;19917;-80
2022/10/05 05:54:37;;;;;;;;;;;15.80;97.60;;;;;;6089513;23;19945;-79
2022/10/05 05:57:12;;;;;;;;;;;15.80;97.30;;;;;;6084797;23;19945;-79
2022/10/05 06:00:05;;;;;;;;;;;15.80;97.00;;;;;;6064965;23;19917;-79
2022/10/05 06:02:58;;;;;;;;;;;15.90;96.80;;;;;;6075788;23;19918;-79
2022/10/05 06:05:24;;;;;;;;;;;15.90;96.70;;;;;;6064212;23;19918;-79
2022/10/05 06:07:52;;;;;;;;;;;15.90;97.40;;;;;;6068679;23;19945;-79
2022/10/05 06:10:19;;;;;;;;;;;15.90;97.20;;;;;;6086375;23;19921;-79
2022/10/05 06:12:47;;;;;;;;;;;16.00;97.00;;;;;;6091504;23;20232;-79
2022/10/05 06:15:23;;;;;;;;;;;16.00;97.20;;;;;;6085180;23;19988;-79
2022/10/05 06:17:55;;;;;;;;;;;16.00;96.80;;;;;;6089850;23;19918;-79
2022/10/05 06:20:40;;;;;;;;;;;16.00;96.60;;;;;;6084713;23;19965;-79
2022/10/05 06:23:12;;;;;;;;;;;16.00;97.20;;;;;;6037293;23;20300;-80
2022/10/05 06:25:51;;;;;;;;;;;16.10;97.20;;;;;;6079357;23;19988;-80
2022/10/05 06:28:18;;;;;;;;;;;16.10;96.80;;;;;;6067069;23;19998;-80
2022/10/05 06:34:25;;;;;;;;;;;16.10;96.20;;;;;;6064219;23;19919;-80
2022/10/05 06:36:57;;;;;;;;;;;16.20;96.10;;;;;;6089478;23;20258;-80
2022/10/05 06:39:33;;;;;;;;;;;16.30;95.90;;;;;;6066021;23;19952;-80
2022/10/05 06:42:06;;;;;;;;;;;16.30;96.30;;;;;;6090276;23;19952;-80
2022/10/05 06:44:53;;;;;;;;;;;16.40;96.10;;;;;;6090636;23;19921;-80
2022/10/05 06:47:20;;;;;;;;;;;16.40;96.00;;;;;;6066481;23;19918;-80
2022/10/05 06:50:08;;;;;;;;;;;16.40;95.70;;;;;;6090836;23;19924;-80
2022/10/05 06:52:53;;;;;;;;;;;16.50;95.60;;;;;;6060763;23;20300;-80
2022/10/05 06:55:39;;;;;;;;;;;16.50;96.00;;;;;;6038179;23;20291;-80
2022/10/05 06:58:15;;;;;;;;;;;16.50;96.00;;;;;;6061747;23;20343;-80
2022/10/05 07:00:47;;;;;;;;;;;16.60;95.80;;;;;;6089110;23;19984;-80
2022/10/05 07:03:14;;;;;;;;;;;16.60;95.80;;;;;;6067019;23;19917;-80
2022/10/05 07:05:41;;;;;;;;;;;16.70;95.50;;;;;;6090292;23;19917;-80
2022/10/05 07:08:14;;;;;;;;;;;16.70;95.80;;;;;;6091158;23;19924;-81
2022/10/05 07:10:56;;;;;;;;;;;16.70;95.40;;;;;;6090005;23;19937;-80
2022/10/05 07:13:38;;;;;;;;;;;16.70;95.30;;;;;;6065726;23;19928;-80
2022/10/05 07:16:07;;;;;;;;;;;16.80;95.20;;;;;;6090579;23;19988;-80
2022/10/05 07:18:34;;;;;;;;;;;16.80;95.00;;;;;;6089773;23;19992;-80
2022/10/05 07:21:01;;;;;;;;;;;16.80;94.90;;;;;;6090175;23;19941;-80
2022/10/05 07:23:51;;;;;;;;;;;16.90;95.00;;;;;;6088784;23;19918;-80
2022/10/05 07:26:18;;;;;;;;;;;16.90;94.80;;;;;;6084785;23;19924;-81
2022/10/05 07:28:46;;;;;;;;;;;17.00;94.70;;;;;;6060793;23;20213;-82
2022/10/05 07:31:13;;;;;;;;;;;17.00;94.40;;;;;;6077246;23;19948;-81
2022/10/05 07:34:01;;;;;;;;;;;17.00;94.20;;;;;;6061411;23;19952;-81
2022/10/05 07:39:34;;;;;;;;;;;17.10;94.10;;;;;;6037786;23;19997;-81
2022/10/05 07:42:33;;;;;;;;;;;17.10;94.00;;;;;;6075911;23;19917;-81
2022/10/05 07:45:09;;;;;;;;;;;17.20;94.00;;;;;;6049902;23;19918;-80
2022/10/05 07:47:42;;;;;;;;;;;17.20;93.80;;;;;;6078167;23;19917;-78
2022/10/05 07:50:14;;;;;;;;;;;17.20;93.50;;;;;;6058637;23;19917;-80
2022/10/05 07:52:46;;;;;;;;;;;17.30;92.40;;;;;;6060915;23;20332;-78
2022/10/05 07:55:13;;;;;;;;;;;17.30;92.60;;;;;;6089222;23;19927;-81
2022/10/05 07:57:46;;;;;;;;;;;17.30;91.90;;;;;;6090139;23;19924;-81
2022/10/05 08:00:16;;;;;;;;;;;17.40;91.80;;;;;;6087693;23;20335;-81
2022/10/05 08:02:43;;;;;;;;;;;17.50;91.30;;;;;;6066734;23;20000;-80
2022/10/05 08:05:12;;;;;;;;;;;17.50;90.60;;;;;;6091329;23;19937;-81
2022/10/05 08:07:39;;;;;;;;;;;17.60;88.30;;;;;;6067707;23;20020;-79
2022/10/05 08:10:17;;;;;;;;;;;17.70;88.90;;;;;;6086434;23;19997;-80
2022/10/05 08:12:47;;;;;;;;;;;17.80;86.70;;;;;;6062627;23;19918;-80
2022/10/05 08:15:15;;;;;;;;;;;17.90;85.30;;;;;;6061584;23;19921;-80
2022/10/05 08:17:48;;;;;;;;;;;18.00;87.10;;;;;;6040819;23;19928;-81
2022/10/05 08:20:17;;;;;;;;;;;18.10;85.50;;;;;;6101371;23;19968;-81
2022/10/05 08:22:46;;;;;;;;;;;18.10;83.50;;;;;;6120959;23;19918;-81
2022/10/05 08:25:23;;;;;;;;;;;18.20;81.10;;;;;;6120407;23;19929;-81
2022/10/05 08:28:02;;;;;;;;;;;18.30;76.60;;;;;;6120176;23;19917;-81
2022/10/05 08:30:30;;;;;;;;;;;18.40;75.20;;;;;;6120751;23;19923;-81
2022/10/05 08:32:59;;;;;;;;;;;18.50;72.90;;;;;;6098848;23;19917;-81
2022/10/05 08:35:26;;;;;;;;;;;18.60;70.00;;;;;;6119465;23;19992;-80
2022/10/05 08:37:53;;;;;;;;;;;18.70;70.90;;;;;;6121625;23;19944;-81
2022/10/05 08:40:23;;;;;;;;;;;18.80;70.20;;;;;;6119564;23;19984;-81
2022/10/05 08:42:50;;;;;;;;;;;18.90;70.60;;;;;;6099042;23;19944;-81
2022/10/05 08:45:19;;;;;;;;;;;19.00;69.60;;;;;;6120350;23;19936;-81
2022/10/05 08:47:58;;;;;;;;;;;19.00;68.80;;;;;;6120946;23;19999;-81
2022/10/05 08:50:33;;;;;;;;;;;19.00;69.30;;;;;;6120809;23;20000;-81
2022/10/05 08:53:11;;;;;;;;;;;19.10;70.20;;;;;;6121064;23;19955;-81
2022/10/05 08:55:50;;;;;;;;;;;19.10;70.30;;;;;;6097598;23;19949;-81
2022/10/05 08:58:29;;;;;;;;;;;19.20;69.20;;;;;;6120302;23;19917;-78
2022/10/05 09:00:59;;;;;;;;;;;19.30;69.70;;;;;;6119258;23;20012;-81
2022/10/05 09:03:44;;;;;;;;;;;19.30;69.70;;;;;;6120194;23;19920;-81
2022/10/05 09:06:20;;;;;;;;;;;19.40;69.80;;;;;;6121336;23;20020;-81
2022/10/05 09:09:08;;;;;;;;;;;19.50;70.10;;;;;;6120713;23;20283;-78
2022/10/05 09:11:36;;;;;;;;;;;19.50;70.00;;;;;;6120848;23;19996;-81
2022/10/05 09:14:03;;;;;;;;;;;19.60;72.20;;;;;;6120013;23;19988;-81
2022/10/05 09:16:48;;;;;;;;;;;19.60;72.80;;;;;;6119353;23;20384;-80
2022/10/05 09:19:33;;;;;;;;;;;19.60;73.30;;;;;;6096241;23;19960;-81
2022/10/05 09:22:14;;;;;;;;;;;19.70;74.50;;;;;;6097261;23;19917;-81
2022/10/05 09:24:57;;;;;;;;;;;19.70;75.00;;;;;;6119953;23;19952;-81
2022/10/05 09:27:38;;;;;;;;;;;19.70;75.60;;;;;;6120583;23;19996;-81
2022/10/05 09:30:13;;;;;;;;;;;19.80;76.30;;;;;;6119915;23;19956;-81
2022/10/05 09:32:58;;;;;;;;;;;19.80;76.80;;;;;;6119572;23;19997;-81
2022/10/05 09:35:45;;;;;;;;;;;19.80;77.70;;;;;;6120547;23;19941;-81
2022/10/05 09:38:14;;;;;;;;;;;19.80;79.00;;;;;;6053563;23;19917;-81
2022/10/05 09:41:00;;;;;;;;;;;19.80;79.30;;;;;;6120392;23;19924;-81
2022/10/05 09:43:33;;;;;;;;;;;19.80;78.80;;;;;;6097137;23;19937;-81
2022/10/05 09:46:08;;;;;;;;;;;19.90;79.30;;;;;;6120787;23;19917;-81
2022/10/05 09:48:44;;;;;;;;;;;19.90;78.30;;;;;;6120011;23;19917;-81
2022/10/05 09:51:16;;;;;;;;;;;19.90;78.10;;;;;;6119493;23;19917;-81
2022/10/05 09:53:49;;;;;;;;;;;19.90;77.10;;;;;;6120063;23;20327;-81
2022/10/05 09:56:35;;;;;;;;;;;19.90;77.90;;;;;;6119364;23;19996;-81
2022/10/05 09:59:06;;;;;;;;;;;19.90;76.60;;;;;;6120174;23;19988;-82
2022/10/05 10:01:50;;;;;;;;;;;19.80;77.90;;;;;;6096911;23;19984;-81
2022/10/05 10:04:36;;;;;;;;;;;19.90;78.00;;;;;;6119404;23;19917;-81
2022/10/05 10:07:03;;;;;;;;;;;19.90;78.50;;;;;;6120416;23;20246;-81
2022/10/05 10:09:53;;;;;;;;;;;20.00;78.40;;;;;;6119098;23;20535;-81
2022/10/05 10:12:42;;;;;;;;;;;20.00;79.00;;;;;;6088509;23;20261;-81
2022/10/05 10:15:27;;;;;;;;;;;20.10;79.10;;;;;;6120171;23;20271;-81
2022/10/05 10:18:06;;;;;;;;;;;20.00;79.80;;;;;;6118670;23;19945;-81
2022/10/05 10:20:45;;;;;;;;;;;20.00;80.80;;;;;;6118314;23;19917;-81
2022/10/05 10:23:12;;;;;;;;;;;20.00;80.00;;;;;;6118434;23;19988;-81
2022/10/05 10:25:39;;;;;;;;;;;20.20;81.80;;;;;;6119284;23;20263;-81
2022/10/05 10:28:24;;;;;;;;;;;20.30;80.80;;;;;;6119538;23;19917;-81
2022/10/05 10:31:03;;;;;;;;;;;20.40;81.00;;;;;;6119012;23;19947;-81
2022/10/05 10:33:48;;;;;;;;;;;20.40;79.50;;;;;;6119781;23;19927;-81
2022/10/05 10:36:31;;;;;;;;;;;20.20;80.60;;;;;;6118697;23;19943;-81
2022/10/05 10:39:13;;;;;;;;;;;20.20;82.00;;;;;;6118786;23;20253;-81
2022/10/05 10:41:48;;;;;;;;;;;20.30;83.10;;;;;;6096558;23;20378;-81
2022/10/05 10:44:15;;;;;;;;;;;20.40;80.90;;;;;;6119346;23;19988;-81
2022/10/05 10:46:45;;;;;;;;;;;20.30;80.50;;;;;;6119779;23;19992;-81
2022/10/05 10:49:27;;;;;;;;;;;20.30;80.50;;;;;;6119116;23;20505;-81
2022/10/05 10:52:04;;;;;;;;;;;20.30;81.60;;;;;;6119851;23;19928;-79
2022/10/05 10:54:36;;;;;;;;;;;20.40;80.50;;;;;;6098559;23;19944;-80
2022/10/05 10:57:15;;;;;;;;;;;20.20;79.80;;;;;;6119606;23;20266;-82
2022/10/05 10:59:54;;;;;;;;;;;20.20;80.90;;;;;;6120316;23;20232;-81
2022/10/05 11:02:30;;;;;;;;;;;20.20;81.00;;;;;;6119196;23;19988;-81
2022/10/05 11:05:03;;;;;;;;;;;20.30;81.30;;;;;;6121123;23;19917;-81
2022/10/05 11:07:44;;;;;;;;;;;20.50;79.60;;;;;;6124267;23;19917;-82
2022/10/05 11:10:29;;;;;;;;;;;20.60;80.10;;;;;;6121989;23;19924;-81
2022/10/05 11:12:59;;;;;;;;;;;20.90;80.80;;;;;;6121341;23;19917;-82
2022/10/05 11:15:35;;;;;;;;;;;20.90;78.40;;;;;;6093797;23;20302;-82
2022/10/05 11:18:02;;;;;;;;;;;21.10;76.30;;;;;;6119004;23;20405;-82
2022/10/05 11:20:34;;;;;;;;;;;21.20;79.00;;;;;;6118751;23;20357;-82
2022/10/05 11:23:24;;;;;;;;;;;21.40;77.20;;;;;;6119615;23;20053;-82
2022/10/05 11:25:56;;;;;;;;;;;21.30;75.30;;;;;;6094996;23;19937;-82
2022/10/05 11:28:26;;;;;;;;;;;21.10;74.90;;;;;;6118695;23;19960;-83
2022/10/05 11:30:53;;;;;;;;;;;21.20;76.00;;;;;;6117627;23;19917;-82
2022/10/05 11:33:39;;;;;;;;;;;21.00;75.90;;;;;;6119825;23;20246;-81
2022/10/05 11:36:24;;;;;;;;;;;21.00;76.10;;;;;;6119327;23;19974;-82
2022/10/05 11:38:57;;;;;;;;;;;21.00;74.80;;;;;;6118784;23;19924;-82
2022/10/05 11:41:26;;;;;;;;;;;21.00;73.40;;;;;;6120010;23;20254;-81
2022/10/05 11:44:04;;;;;;;;;;;20.90;74.90;;;;;;6117971;23;19996;-82
2022/10/05 11:46:38;;;;;;;;;;;20.90;76.00;;;;;;6118820;23;19992;-82
2022/10/05 11:49:14;;;;;;;;;;;21.00;76.20;;;;;;6117806;23;19917;-82
2022/10/05 11:51:46;;;;;;;;;;;21.00;74.50;;;;;;6118839;23;20315;-83
2022/10/05 11:54:17;;;;;;;;;;;20.90;76.50;;;;;;6118339;23;19925;-82
2022/10/05 11:56:48;;;;;;;;;;;21.00;75.70;;;;;;6119575;23;19991;-82
2022/10/05 11:59:25;;;;;;;;;;;20.90;75.10;;;;;;6116803;23;19921;-82
2022/10/05 12:02:12;;;;;;;;;;;20.90;75.20;;;;;;6119009;23;19988;-82
2022/10/05 12:04:58;;;;;;;;;;;21.10;74.90;;;;;;6118375;23;20254;-82
2022/10/05 12:07:25;;;;;;;;;;;21.20;74.30;;;;;;6118288;23;19984;-82
2022/10/05 12:10:13;;;;;;;;;;;21.10;74.30;;;;;;6119079;23;19917;-83
2022/10/05 12:12:44;;;;;;;;;;;21.20;73.40;;;;;;6118602;23;19917;-82
2022/10/05 12:15:24;;;;;;;;;;;21.30;72.70;;;;;;6119041;23;20330;-82
2022/10/05 12:17:58;;;;;;;;;;;21.30;74.80;;;;;;6118161;23;20360;-82
2022/10/05 12:20:44;;;;;;;;;;;21.40;73.00;;;;;;6118947;23;19933;-82
2022/10/05 12:23:20;;;;;;;;;;;21.30;73.00;;;;;;6094280;23;19944;-82
2022/10/05 12:26:06;;;;;;;;;;;21.30;72.00;;;;;;6118192;23;19917;-82
2022/10/05 12:28:40;;;;;;;;;;;21.40;71.20;;;;;;6118785;23;20067;-82
2022/10/05 12:31:12;;;;;;;;;;;21.40;70.50;;;;;;6117784;23;19996;-82
2022/10/05 12:33:45;;;;;;;;;;;21.50;70.20;;;;;;6118872;23;19917;-81
2022/10/05 12:36:32;;;;;;;;;;;21.40;71.40;;;;;;6117950;23;19928;-82
2022/10/05 12:39:35;;;;;;;;;;;21.30;71.40;;;;;;6093083;23;20258;-82
2022/10/05 12:42:08;;;;;;;;;;;21.10;72.70;;;;;;6118205;23;19921;-82
2022/10/05 12:44:50;;;;;;;;;;;21.20;73.40;;;;;;6119376;23;19988;-82
2022/10/05 12:47:35;;;;;;;;;;;21.20;72.50;;;;;;6093928;23;19924;-82
2022/10/05 12:50:08;;;;;;;;;;;21.20;72.10;;;;;;6119744;23;19923;-82
2022/10/05 12:52:37;;;;;;;;;;;21.10;72.10;;;;;;6120060;23;19928;-82
2022/10/05 12:55:14;;;;;;;;;;;21.10;72.80;;;;;;6119384;23;19917;-82
2022/10/05 12:57:50;;;;;;;;;;;21.10;73.80;;;;;;6120174;23;19917;-82
2022/10/05 13:00:18;;;;;;;;;;;21.10;74.00;;;;;;6119256;23;19992;-82
2022/10/05 13:02:50;;;;;;;;;;;21.10;74.20;;;;;;6119674;23;19917;-81
2022/10/05 13:05:43;;;;;;;;;;;21.20;74.40;;;;;;6119417;23;20008;-81
2022/10/05 13:08:28;;;;;;;;;;;21.20;73.70;;;;;;6093127;23;19923;-82
2022/10/05 13:11:00;;;;;;;;;;;21.20;73.10;;;;;;6120335;23;19988;-82
2022/10/05 13:13:40;;;;;;;;;;;21.10;73.20;;;;;;6117515;23;19917;-83
2022/10/05 13:16:15;;;;;;;;;;;21.10;73.90;;;;;;6118790;23;19972;-83
2022/10/05 13:18:51;;;;;;;;;;;21.10;73.90;;;;;;6120066;23;19921;-82
2022/10/05 13:21:24;;;;;;;;;;;21.10;74.20;;;;;;6118175;23;20003;-83
2022/10/05 13:23:55;;;;;;;;;;;21.20;73.00;;;;;;6120236;23;19917;-83
2022/10/05 13:26:30;;;;;;;;;;;21.20;70.40;;;;;;6117743;23;19968;-82
2022/10/05 13:29:00;;;;;;;;;;;21.10;72.40;;;;;;6120500;23;20250;-82
2022/10/05 13:31:41;;;;;;;;;;;21.20;71.70;;;;;;6119855;23;19918;-82
2022/10/05 13:34:20;;;;;;;;;;;21.20;70.20;;;;;;6120215;23;19917;-82
2022/10/05 13:36:55;;;;;;;;;;;21.20;69.60;;;;;;6121248;23;20302;-81
2022/10/05 13:39:40;;;;;;;;;;;21.10;69.30;;;;;;6120256;23;19996;-81
2022/10/05 13:42:14;;;;;;;;;;;21.10;70.20;;;;;;6118660;23;19991;-82
2022/10/05 13:44:57;;;;;;;;;;;21.20;70.70;;;;;;6120577;23;19921;-82
2022/10/05 13:47:30;;;;;;;;;;;21.10;71.50;;;;;;6119812;23;21363;-82
2022/10/05 13:50:17;;;;;;;;;;;21.10;71.10;;;;;;6120799;23;20025;-82
2022/10/05 13:53:03;;;;;;;;;;;21.10;70.80;;;;;;6119746;23;20306;-82
2022/10/05 13:55:33;;;;;;;;;;;21.00;71.00;;;;;;6119563;23;20327;-82
2022/10/05 13:58:21;;;;;;;;;;;20.90;70.40;;;;;;6120355;23;19952;-82
2022/10/05 14:00:54;;;;;;;;;;;20.90;71.30;;;;;;6119847;23;20361;-82
2022/10/05 14:03:37;;;;;;;;;;;20.90;71.10;;;;;;6095965;23;20334;-82
2022/10/05 14:06:26;;;;;;;;;;;20.90;70.60;;;;;;6118601;23;20245;-82
2022/10/05 14:08:53;;;;;;;;;;;20.90;71.50;;;;;;6119661;23;19997;-81
2022/10/05 14:11:30;;;;;;;;;;;20.80;71.50;;;;;;6120576;23;19924;-82
2022/10/05 14:14:02;;;;;;;;;;;20.80;71.80;;;;;;6096538;23;20316;-82
2022/10/05 14:16:29;;;;;;;;;;;20.70;72.40;;;;;;6120311;23;19984;-82
2022/10/05 14:18:56;;;;;;;;;;;20.70;72.70;;;;;;6119457;23;19924;-82
2022/10/05 14:21:25;;;;;;;;;;;20.70;74.30;;;;;;6120344;23;20282;-82
2022/10/05 14:23:52;;;;;;;;;;;20.70;74.90;;;;;;6119782;23;19937;-82
2022/10/05 14:26:30;;;;;;;;;;;20.60;75.40;;;;;;6120115;23;19925;-82
2022/10/05 14:29:18;;;;;;;;;;;20.60;76.00;;;;;;6118700;23;20399;-82
2022/10/05 14:31:53;;;;;;;;;;;20.60;75.90;;;;;;6119141;23;20342;-82
2022/10/05 14:34:33;;;;;;;;;;;20.60;75.30;;;;;;6119673;23;19918;-82
2022/10/05 14:37:16;;;;;;;;;;;20.60;75.40;;;;;;6117781;23;19917;-82
2022/10/05 14:39:44;;;;;;;;;;;20.50;74.90;;;;;;6119505;23;19917;-82
2022/10/05 14:42:16;;;;;;;;;;;20.60;75.30;;;;;;6120080;23;19918;-82
2022/10/05 14:44:43;;;;;;;;;;;20.60;74.90;;;;;;6119635;23;19917;-82
2022/10/05 14:47:21;;;;;;;;;;;20.60;74.30;;;;;;6097136;23;19917;-82
2022/10/05 14:50:09;;;;;;;;;;;20.60;74.70;;;;;;6119520;23;20254;-81
2022/10/05 14:52:37;;;;;;;;;;;20.50;74.40;;;;;;6117330;23;19927;-82
2022/10/05 14:55:17;;;;;;;;;;;20.50;74.90;;;;;;6092770;23;19984;-81
2022/10/05 14:57:43;;;;;;;;;;;20.40;75.00;;;;;;6118790;23;20023;-82
2022/10/05 15:00:17;;;;;;;;;;;20.50;75.20;;;;;;6118827;23;19967;-82
2022/10/05 15:02:53;;;;;;;;;;;20.50;75.40;;;;;;6118566;23;19948;-81
2022/10/05 15:05:19;;;;;;;;;;;20.50;76.00;;;;;;6119392;23;19980;-82
2022/10/05 15:07:48;;;;;;;;;;;20.50;74.80;;;;;;6118552;23;19939;-82
2022/10/05 15:10:34;;;;;;;;;;;20.50;75.80;;;;;;6118977;23;19987;-82
2022/10/05 15:13:07;;;;;;;;;;;20.50;75.90;;;;;;6118664;23;19988;-82